sensor_id;sensor_type;location;lat;lon;timestamp;temperature;humidity
52125;DHT22;38119;52.710;6.398;2023-04-15T00:01:18;8.90;99.90
52125;DHT22;38119;52.710;6.398;2023-04-15T00:03:45;8.90;99.90
52125;DHT22;38119;52.710;6.398;2023-04-15T00:06:12;8.90;99.90
52125;DHT22;38119;52.710;6.398;2023-04-15T00:08:38;8.80;99.90
52125;DHT22;38119;52.710;6.398;2023-04-15T00:11:03;8.80;99.90
52125;DHT22;38119;52.710;6.398;2023-04-15T00:13:30;8.80;99.90
52125;DHT22;38119;52.710;6.398;2023-04-15T00:15:58;8.80;99.90
52125;DHT22;38119;52.710;6.398;2023-04-15T00:18:24;8.80;99.90
52125;DHT22;38119;52.710;6.398;2023-04-15T00:20:49;8.70;99.90
52125;DHT22;38119;52.710;6.398;2023-04-15T00:23:15;8.70;99.90
52125;DHT22;38119;52.710;6.398;2023-04-15T00:25:41;8.70;99.90
52125;DHT22;38119;52.710;6.398;2023-04-15T00:28:06;8.70;99.90
52125;DHT22;38119;52.710;6.398;2023-04-15T00:30:32;8.60;99.90
52125;DHT22;38119;52.710;6.398;2023-04-15T00:33:01;8.60;99.90
52125;DHT22;38119;52.710;6.398;2023-04-15T00:35:28;8.60;99.90
52125;DHT22;38119;52.710;6.398;2023-04-15T00:37:53;8.60;99.90
52125;DHT22;38119;52.710;6.398;2023-04-15T00:40:20;8.50;99.90
52125;DHT22;38119;52.710;6.398;2023-04-15T00:42:46;8.50;99.90
52125;DHT22;38119;52.710;6.398;2023-04-15T00:45:12;8.50;99.90
52125;DHT22;38119;52.710;6.398;2023-04-15T00:47:40;8.50;99.90
52125;DHT22;38119;52.710;6.398;2023-04-15T00:50:07;8.40;99.90
52125;DHT22;38119;52.710;6.398;2023-04-15T00:52:32;8.40;99.90
52125;DHT22;38119;52.710;6.398;2023-04-15T00:54:59;8.40;99.90
52125;DHT22;38119;52.710;6.398;2023-04-15T00:57:25;8.40;99.90
52125;DHT22;38119;52.710;6.398;2023-04-15T00:59:51;8.40;99.90
52125;DHT22;38119;52.710;6.398;2023-04-15T01:02:17;8.40;99.90
52125;DHT22;38119;52.710;6.398;2023-04-15T01:04:43;8.30;99.90
52125;DHT22;38119;52.710;6.398;2023-04-15T01:07:08;8.30;99.90
52125;DHT22;38119;52.710;6.398;2023-04-15T01:09:34;8.30;99.90
52125;DHT22;38119;52.710;6.398;2023-04-15T01:11:59;8.20;99.90
52125;DHT22;38119;52.710;6.398;2023-04-15T01:14:27;8.20;99.90
52125;DHT22;38119;52.710;6.398;2023-04-15T01:16:53;8.20;99.90
52125;DHT22;38119;52.710;6.398;2023-04-15T01:19:19;8.20;99.90
52125;DHT22;38119;52.710;6.398;2023-04-15T01:21:48;8.20;99.90
52125;DHT22;38119;52.710;6.398;2023-04-15T01:24:14;8.20;99.90
52125;DHT22;38119;52.710;6.398;2023-04-15T01:26:42;8.70;99.90
52125;DHT22;38119;52.710;6.398;2023-04-15T01:29:08;8.10;99.90
52125;DHT22;38119;52.710;6.398;2023-04-15T01:31:34;8.10;99.90
52125;DHT22;38119;52.710;6.398;2023-04-15T01:33:59;8.10;99.90
52125;DHT22;38119;52.710;6.398;2023-04-15T01:36:25;8.10;99.90
52125;DHT22;38119;52.710;6.398;2023-04-15T01:38:51;8.00;99.90
52125;DHT22;38119;52.710;6.398;2023-04-15T01:41:21;8.00;99.90
52125;DHT22;38119;52.710;6.398;2023-04-15T01:43:49;8.00;99.90
52125;DHT22;38119;52.710;6.398;2023-04-15T01:46:15;8.00;99.90
52125;DHT22;38119;52.710;6.398;2023-04-15T01:48:45;8.00;99.90
52125;DHT22;38119;52.710;6.398;2023-04-15T01:51:11;7.90;99.90
52125;DHT22;38119;52.710;6.398;2023-04-15T01:53:37;7.90;99.90
52125;DHT22;38119;52.710;6.398;2023-04-15T01:56:03;8.20;99.90
52125;DHT22;38119;52.710;6.398;2023-04-15T01:58:29;7.90;99.90
52125;DHT22;38119;52.710;6.398;2023-04-15T02:00:54;7.90;99.90
52125;DHT22;38119;52.710;6.398;2023-04-15T02:03:20;7.90;99.90
52125;DHT22;38119;52.710;6.398;2023-04-15T02:05:46;7.90;99.90
52125;DHT22;38119;52.710;6.398;2023-04-15T02:08:11;7.80;99.90
52125;DHT22;38119;52.710;6.398;2023-04-15T02:10:37;7.80;99.90
52125;DHT22;38119;52.710;6.398;2023-04-15T02:13:04;7.80;99.90
52125;DHT22;38119;52.710;6.398;2023-04-15T02:15:29;7.80;99.90
52125;DHT22;38119;52.710;6.398;2023-04-15T02:17:55;7.80;99.90
52125;DHT22;38119;52.710;6.398;2023-04-15T02:20:21;7.80;99.90
52125;DHT22;38119;52.710;6.398;2023-04-15T02:22:47;7.70;99.90
52125;DHT22;38119;52.710;6.398;2023-04-15T02:25:13;7.70;99.90
52125;DHT22;38119;52.710;6.398;2023-04-15T02:27:39;7.70;99.90
52125;DHT22;38119;52.710;6.398;2023-04-15T02:30:05;7.70;99.90
52125;DHT22;38119;52.710;6.398;2023-04-15T02:32:32;7.70;99.90
52125;DHT22;38119;52.710;6.398;2023-04-15T02:35:04;7.70;99.90
52125;DHT22;38119;52.710;6.398;2023-04-15T02:37:31;7.60;99.90
52125;DHT22;38119;52.710;6.398;2023-04-15T02:39:56;7.70;99.90
52125;DHT22;38119;52.710;6.398;2023-04-15T02:42:22;7.60;99.90
52125;DHT22;38119;52.710;6.398;2023-04-15T02:44:48;7.60;99.90
52125;DHT22;38119;52.710;6.398;2023-04-15T02:47:13;7.50;99.90
52125;DHT22;38119;52.710;6.398;2023-04-15T02:49:40;7.50;99.90
52125;DHT22;38119;52.710;6.398;2023-04-15T02:52:06;7.50;99.90
52125;DHT22;38119;52.710;6.398;2023-04-15T02:54:32;7.50;99.90
52125;DHT22;38119;52.710;6.398;2023-04-15T02:56:58;7.50;99.90
52125;DHT22;38119;52.710;6.398;2023-04-15T02:59:24;7.50;99.90
52125;DHT22;38119;52.710;6.398;2023-04-15T03:01:50;7.40;99.90
52125;DHT22;38119;52.710;6.398;2023-04-15T03:04:15;7.40;99.90
52125;DHT22;38119;52.710;6.398;2023-04-15T03:06:41;7.40;99.90
52125;DHT22;38119;52.710;6.398;2023-04-15T03:09:07;7.30;99.90
52125;DHT22;38119;52.710;6.398;2023-04-15T03:11:32;7.30;99.90
52125;DHT22;38119;52.710;6.398;2023-04-15T03:13:59;7.30;99.90
52125;DHT22;38119;52.710;6.398;2023-04-15T03:16:25;7.30;99.90
52125;DHT22;38119;52.710;6.398;2023-04-15T03:18:50;7.30;99.90
52125;DHT22;38119;52.710;6.398;2023-04-15T03:21:16;7.30;99.90
52125;DHT22;38119;52.710;6.398;2023-04-15T03:23:42;7.30;99.90
52125;DHT22;38119;52.710;6.398;2023-04-15T03:26:07;7.30;99.90
52125;DHT22;38119;52.710;6.398;2023-04-15T03:28:33;7.30;99.90
52125;DHT22;38119;52.710;6.398;2023-04-15T03:30:59;7.30;99.90
52125;DHT22;38119;52.710;6.398;2023-04-15T03:33:25;7.20;99.90
52125;DHT22;38119;52.710;6.398;2023-04-15T03:35:51;7.20;99.90
52125;DHT22;38119;52.710;6.398;2023-04-15T03:38:17;7.20;99.90
52125;DHT22;38119;52.710;6.398;2023-04-15T03:40:44;7.20;99.90
52125;DHT22;38119;52.710;6.398;2023-04-15T03:43:10;7.20;99.90
52125;DHT22;38119;52.710;6.398;2023-04-15T03:45:36;7.20;99.90
52125;DHT22;38119;52.710;6.398;2023-04-15T03:48:02;7.10;99.90
52125;DHT22;38119;52.710;6.398;2023-04-15T03:50:28;7.10;99.90
52125;DHT22;38119;52.710;6.398;2023-04-15T03:52:53;7.10;99.90
52125;DHT22;38119;52.710;6.398;2023-04-15T03:55:19;7.10;99.90
52125;DHT22;38119;52.710;6.398;2023-04-15T03:57:45;7.10;99.90
52125;DHT22;38119;52.710;6.398;2023-04-15T04:00:11;7.10;99.90
52125;DHT22;38119;52.710;6.398;2023-04-15T04:02:36;7.10;99.90
52125;DHT22;38119;52.710;6.398;2023-04-15T04:05:02;7.00;99.90
52125;DHT22;38119;52.710;6.398;2023-04-15T04:07:28;7.00;99.90
52125;DHT22;38119;52.710;6.398;2023-04-15T04:09:56;7.00;99.90
52125;DHT22;38119;52.710;6.398;2023-04-15T04:12:21;7.00;99.90
52125;DHT22;38119;52.710;6.398;2023-04-15T04:14:47;6.90;99.90
52125;DHT22;38119;52.710;6.398;2023-04-15T04:17:13;6.90;99.90
52125;DHT22;38119;52.710;6.398;2023-04-15T04:19:38;6.90;99.90
52125;DHT22;38119;52.710;6.398;2023-04-15T04:22:04;6.90;99.90
52125;DHT22;38119;52.710;6.398;2023-04-15T04:24:30;6.90;99.90
52125;DHT22;38119;52.710;6.398;2023-04-15T04:26:55;6.80;99.90
52125;DHT22;38119;52.710;6.398;2023-04-15T04:29:21;6.90;99.90
52125;DHT22;38119;52.710;6.398;2023-04-15T04:31:47;6.80;99.90
52125;DHT22;38119;52.710;6.398;2023-04-15T04:34:14;6.80;99.90
52125;DHT22;38119;52.710;6.398;2023-04-15T04:36:39;6.80;99.90
52125;DHT22;38119;52.710;6.398;2023-04-15T04:39:05;6.80;99.90
52125;DHT22;38119;52.710;6.398;2023-04-15T04:41:30;6.80;99.90
52125;DHT22;38119;52.710;6.398;2023-04-15T04:43:56;6.80;99.90
52125;DHT22;38119;52.710;6.398;2023-04-15T04:46:22;6.80;99.90
52125;DHT22;38119;52.710;6.398;2023-04-15T04:48:48;6.80;99.90
52125;DHT22;38119;52.710;6.398;2023-04-15T04:51:14;6.80;99.90
52125;DHT22;38119;52.710;6.398;2023-04-15T04:53:40;6.80;99.90
52125;DHT22;38119;52.710;6.398;2023-04-15T04:56:07;6.80;99.90
52125;DHT22;38119;52.710;6.398;2023-04-15T04:58:33;6.70;99.90
52125;DHT22;38119;52.710;6.398;2023-04-15T05:00:59;6.70;99.90
52125;DHT22;38119;52.710;6.398;2023-04-15T05:03:25;6.70;99.90
52125;DHT22;38119;52.710;6.398;2023-04-15T05:05:51;6.70;99.90
52125;DHT22;38119;52.710;6.398;2023-04-15T05:08:16;6.70;99.90
52125;DHT22;38119;52.710;6.398;2023-04-15T05:10:42;6.70;99.90
52125;DHT22;38119;52.710;6.398;2023-04-15T05:13:07;6.70;99.90
52125;DHT22;38119;52.710;6.398;2023-04-15T05:15:33;6.70;99.90
52125;DHT22;38119;52.710;6.398;2023-04-15T05:18:05;6.70;99.90
52125;DHT22;38119;52.710;6.398;2023-04-15T05:20:31;6.70;99.90
52125;DHT22;38119;52.710;6.398;2023-04-15T05:22:56;6.70;99.90
52125;DHT22;38119;52.710;6.398;2023-04-15T05:25:22;6.70;99.90
52125;DHT22;38119;52.710;6.398;2023-04-15T05:27:47;6.70;99.90
52125;DHT22;38119;52.710;6.398;2023-04-15T05:30:16;6.70;99.90
52125;DHT22;38119;52.710;6.398;2023-04-15T05:32:42;6.70;99.90
52125;DHT22;38119;52.710;6.398;2023-04-15T05:35:07;6.70;99.90
52125;DHT22;38119;52.710;6.398;2023-04-15T05:37:33;6.70;99.90
52125;DHT22;38119;52.710;6.398;2023-04-15T05:39:59;6.70;99.90
52125;DHT22;38119;52.710;6.398;2023-04-15T05:42:25;6.70;99.90
52125;DHT22;38119;52.710;6.398;2023-04-15T05:44:54;6.80;99.90
52125;DHT22;38119;52.710;6.398;2023-04-15T05:47:20;6.80;99.90
52125;DHT22;38119;52.710;6.398;2023-04-15T05:49:46;6.80;99.90
52125;DHT22;38119;52.710;6.398;2023-04-15T05:52:14;6.80;99.90
52125;DHT22;38119;52.710;6.398;2023-04-15T05:54:39;6.80;99.90
52125;DHT22;38119;52.710;6.398;2023-04-15T05:57:05;6.90;99.90
52125;DHT22;38119;52.710;6.398;2023-04-15T05:59:30;6.90;99.90
52125;DHT22;38119;52.710;6.398;2023-04-15T06:02:00;6.90;99.90
52125;DHT22;38119;52.710;6.398;2023-04-15T06:04:26;6.90;99.90
52125;DHT22;38119;52.710;6.398;2023-04-15T06:06:52;6.90;99.90
52125;DHT22;38119;52.710;6.398;2023-04-15T06:09:17;6.90;99.90
52125;DHT22;38119;52.710;6.398;2023-04-15T06:11:43;7.00;99.90
52125;DHT22;38119;52.710;6.398;2023-04-15T06:14:09;7.00;99.90
52125;DHT22;38119;52.710;6.398;2023-04-15T06:16:35;7.00;99.90
52125;DHT22;38119;52.710;6.398;2023-04-15T06:19:01;7.00;99.90
52125;DHT22;38119;52.710;6.398;2023-04-15T06:21:26;7.10;99.90
52125;DHT22;38119;52.710;6.398;2023-04-15T06:23:53;7.10;99.90
52125;DHT22;38119;52.710;6.398;2023-04-15T06:26:24;7.10;99.90
52125;DHT22;38119;52.710;6.398;2023-04-15T06:28:50;7.10;99.90
52125;DHT22;38119;52.710;6.398;2023-04-15T06:31:16;7.20;99.90
52125;DHT22;38119;52.710;6.398;2023-04-15T06:33:42;7.20;99.90
52125;DHT22;38119;52.710;6.398;2023-04-15T06:36:07;7.30;99.90
52125;DHT22;38119;52.710;6.398;2023-04-15T06:38:33;7.30;99.90
52125;DHT22;38119;52.710;6.398;2023-04-15T06:40:58;7.30;99.90
52125;DHT22;38119;52.710;6.398;2023-04-15T06:43:24;7.40;99.90
52125;DHT22;38119;52.710;6.398;2023-04-15T06:45:50;7.40;99.90
52125;DHT22;38119;52.710;6.398;2023-04-15T06:48:16;7.50;99.90
52125;DHT22;38119;52.710;6.398;2023-04-15T06:50:43;7.50;99.90
52125;DHT22;38119;52.710;6.398;2023-04-15T06:53:13;7.60;99.90
52125;DHT22;38119;52.710;6.398;2023-04-15T06:55:39;7.70;99.90
52125;DHT22;38119;52.710;6.398;2023-04-15T06:58:05;7.70;99.90
52125;DHT22;38119;52.710;6.398;2023-04-15T07:00:31;7.80;99.90
52125;DHT22;38119;52.710;6.398;2023-04-15T07:03:00;7.90;99.90
52125;DHT22;38119;52.710;6.398;2023-04-15T07:05:28;8.00;99.90
52125;DHT22;38119;52.710;6.398;2023-04-15T07:07:55;8.00;99.90
52125;DHT22;38119;52.710;6.398;2023-04-15T07:10:21;8.10;99.90
52125;DHT22;38119;52.710;6.398;2023-04-15T07:12:48;8.10;99.90
52125;DHT22;38119;52.710;6.398;2023-04-15T07:15:15;8.20;99.90
52125;DHT22;38119;52.710;6.398;2023-04-15T07:17:41;8.20;99.90
52125;DHT22;38119;52.710;6.398;2023-04-15T07:20:08;8.30;99.90
52125;DHT22;38119;52.710;6.398;2023-04-15T07:22:34;8.40;99.90
52125;DHT22;38119;52.710;6.398;2023-04-15T07:25:02;8.40;99.90
52125;DHT22;38119;52.710;6.398;2023-04-15T07:27:28;8.50;99.90
52125;DHT22;38119;52.710;6.398;2023-04-15T07:29:54;8.60;99.90
52125;DHT22;38119;52.710;6.398;2023-04-15T07:32:19;8.70;99.90
52125;DHT22;38119;52.710;6.398;2023-04-15T07:34:45;8.80;99.90
52125;DHT22;38119;52.710;6.398;2023-04-15T07:37:11;8.80;99.90
52125;DHT22;38119;52.710;6.398;2023-04-15T07:39:37;8.80;99.90
52125;DHT22;38119;52.710;6.398;2023-04-15T07:42:02;8.90;99.90
52125;DHT22;38119;52.710;6.398;2023-04-15T07:44:29;8.90;99.90
52125;DHT22;38119;52.710;6.398;2023-04-15T07:46:55;9.00;99.90
52125;DHT22;38119;52.710;6.398;2023-04-15T07:49:21;9.00;99.90
52125;DHT22;38119;52.710;6.398;2023-04-15T07:51:48;9.10;99.90
52125;DHT22;38119;52.710;6.398;2023-04-15T07:54:15;9.70;99.90
52125;DHT22;38119;52.710;6.398;2023-04-15T07:56:43;9.20;99.90
52125;DHT22;38119;52.710;6.398;2023-04-15T07:59:09;9.20;99.90
52125;DHT22;38119;52.710;6.398;2023-04-15T08:01:36;9.30;99.90
52125;DHT22;38119;52.710;6.398;2023-04-15T08:04:02;9.30;99.90
52125;DHT22;38119;52.710;6.398;2023-04-15T08:06:28;9.40;99.90
52125;DHT22;38119;52.710;6.398;2023-04-15T08:08:54;9.40;99.90
52125;DHT22;38119;52.710;6.398;2023-04-15T08:11:20;10.40;99.90
52125;DHT22;38119;52.710;6.398;2023-04-15T08:13:47;9.50;99.90
52125;DHT22;38119;52.710;6.398;2023-04-15T08:16:20;9.60;99.90
52125;DHT22;38119;52.710;6.398;2023-04-15T08:18:48;9.60;99.90
52125;DHT22;38119;52.710;6.398;2023-04-15T08:21:15;9.70;99.90
52125;DHT22;38119;52.710;6.398;2023-04-15T08:23:42;9.80;99.90
52125;DHT22;38119;52.710;6.398;2023-04-15T08:26:08;9.90;99.90
52125;DHT22;38119;52.710;6.398;2023-04-15T08:28:34;9.90;99.90
52125;DHT22;38119;52.710;6.398;2023-04-15T08:31:00;10.00;99.90
52125;DHT22;38119;52.710;6.398;2023-04-15T08:33:26;10.10;99.90
52125;DHT22;38119;52.710;6.398;2023-04-15T08:35:53;10.10;99.90
52125;DHT22;38119;52.710;6.398;2023-04-15T08:38:18;10.10;99.90
52125;DHT22;38119;52.710;6.398;2023-04-15T08:40:44;10.20;99.90
52125;DHT22;38119;52.710;6.398;2023-04-15T08:43:22;10.30;99.90
52125;DHT22;38119;52.710;6.398;2023-04-15T08:45:53;10.30;99.90
52125;DHT22;38119;52.710;6.398;2023-04-15T08:48:20;10.40;99.90
52125;DHT22;38119;52.710;6.398;2023-04-15T08:50:47;10.40;99.90
52125;DHT22;38119;52.710;6.398;2023-04-15T08:53:13;10.40;99.90
52125;DHT22;38119;52.710;6.398;2023-04-15T08:55:44;10.40;99.90
52125;DHT22;38119;52.710;6.398;2023-04-15T08:58:13;10.50;99.90
52125;DHT22;38119;52.710;6.398;2023-04-15T09:00:40;10.50;99.90
52125;DHT22;38119;52.710;6.398;2023-04-15T09:03:06;10.50;99.90
52125;DHT22;38119;52.710;6.398;2023-04-15T09:05:36;10.50;99.90
52125;DHT22;38119;52.710;6.398;2023-04-15T09:08:04;10.50;99.90
52125;DHT22;38119;52.710;6.398;2023-04-15T09:10:32;10.50;99.90
52125;DHT22;38119;52.710;6.398;2023-04-15T09:12:58;10.40;99.90
52125;DHT22;38119;52.710;6.398;2023-04-15T09:15:24;10.40;99.90
52125;DHT22;38119;52.710;6.398;2023-04-15T09:17:52;10.40;99.90
52125;DHT22;38119;52.710;6.398;2023-04-15T09:20:20;10.50;99.90
52125;DHT22;38119;52.710;6.398;2023-04-15T09:22:47;10.50;99.90
52125;DHT22;38119;52.710;6.398;2023-04-15T09:27:49;10.60;99.90
52125;DHT22;38119;52.710;6.398;2023-04-15T09:30:15;10.60;99.90
52125;DHT22;38119;52.710;6.398;2023-04-15T09:32:58;10.60;99.90
52125;DHT22;38119;52.710;6.398;2023-04-15T09:35:26;10.50;99.90
52125;DHT22;38119;52.710;6.398;2023-04-15T09:37:53;10.50;99.90
52125;DHT22;38119;52.710;6.398;2023-04-15T09:40:36;10.50;99.90
52125;DHT22;38119;52.710;6.398;2023-04-15T09:43:04;10.50;99.90
52125;DHT22;38119;52.710;6.398;2023-04-15T09:45:30;10.50;99.90
52125;DHT22;38119;52.710;6.398;2023-04-15T09:50:41;10.60;99.90
52125;DHT22;38119;52.710;6.398;2023-04-15T09:53:09;10.60;99.90
52125;DHT22;38119;52.710;6.398;2023-04-15T09:55:36;10.50;99.90
52125;DHT22;38119;52.710;6.398;2023-04-15T09:58:07;10.50;99.90
52125;DHT22;38119;52.710;6.398;2023-04-15T10:00:33;10.50;99.90
52125;DHT22;38119;52.710;6.398;2023-04-15T10:02:58;10.50;99.90
52125;DHT22;38119;52.710;6.398;2023-04-15T10:05:24;10.60;99.90
52125;DHT22;38119;52.710;6.398;2023-04-15T10:07:50;10.50;99.90
52125;DHT22;38119;52.710;6.398;2023-04-15T10:10:17;10.50;99.90
52125;DHT22;38119;52.710;6.398;2023-04-15T10:12:43;10.50;99.90
52125;DHT22;38119;52.710;6.398;2023-04-15T10:15:15;10.50;99.90
52125;DHT22;38119;52.710;6.398;2023-04-15T10:17:42;10.50;99.90
52125;DHT22;38119;52.710;6.398;2023-04-15T10:20:09;10.60;99.90
52125;DHT22;38119;52.710;6.398;2023-04-15T10:22:36;10.70;99.90
52125;DHT22;38119;52.710;6.398;2023-04-15T10:25:02;10.70;99.90
52125;DHT22;38119;52.710;6.398;2023-04-15T10:27:29;10.80;99.90
52125;DHT22;38119;52.710;6.398;2023-04-15T10:29:55;10.70;99.90
52125;DHT22;38119;52.710;6.398;2023-04-15T10:32:24;10.80;99.90
52125;DHT22;38119;52.710;6.398;2023-04-15T10:34:50;10.80;99.90
52125;DHT22;38119;52.710;6.398;2023-04-15T10:37:21;10.80;99.90
52125;DHT22;38119;52.710;6.398;2023-04-15T10:39:50;10.90;99.90
52125;DHT22;38119;52.710;6.398;2023-04-15T10:42:18;10.90;99.90
52125;DHT22;38119;52.710;6.398;2023-04-15T10:44:45;10.90;99.90
52125;DHT22;38119;52.710;6.398;2023-04-15T10:47:14;10.90;99.90
52125;DHT22;38119;52.710;6.398;2023-04-15T10:49:48;10.80;99.90
52125;DHT22;38119;52.710;6.398;2023-04-15T10:52:16;10.80;99.90
52125;DHT22;38119;52.710;6.398;2023-04-15T10:54:43;10.70;99.90
52125;DHT22;38119;52.710;6.398;2023-04-15T10:57:14;10.80;99.90
52125;DHT22;38119;52.710;6.398;2023-04-15T11:00:09;10.80;99.90
52125;DHT22;38119;52.710;6.398;2023-04-15T11:02:53;10.80;99.90
52125;DHT22;38119;52.710;6.398;2023-04-15T11:07:58;11.00;99.90
52125;DHT22;38119;52.710;6.398;2023-04-15T11:12:57;11.20;99.90
52125;DHT22;38119;52.710;6.398;2023-04-15T11:15:35;11.30;99.90
52125;DHT22;38119;52.710;6.398;2023-04-15T11:18:39;11.30;99.90
52125;DHT22;38119;52.710;6.398;2023-04-15T11:21:06;11.30;99.90
52125;DHT22;38119;52.710;6.398;2023-04-15T11:23:42;11.30;99.90
52125;DHT22;38119;52.710;6.398;2023-04-15T11:26:11;11.20;99.90
52125;DHT22;38119;52.710;6.398;2023-04-15T11:28:39;11.20;99.90
52125;DHT22;38119;52.710;6.398;2023-04-15T11:31:16;11.10;99.90
52125;DHT22;38119;52.710;6.398;2023-04-15T11:33:54;11.10;99.90
52125;DHT22;38119;52.710;6.398;2023-04-15T11:36:23;11.00;99.90
52125;DHT22;38119;52.710;6.398;2023-04-15T11:38:51;11.00;99.90
52125;DHT22;38119;52.710;6.398;2023-04-15T11:41:20;11.00;99.90
52125;DHT22;38119;52.710;6.398;2023-04-15T11:43:46;11.00;99.90
52125;DHT22;38119;52.710;6.398;2023-04-15T11:46:11;11.00;99.90
52125;DHT22;38119;52.710;6.398;2023-04-15T11:48:44;11.00;99.90
52125;DHT22;38119;52.710;6.398;2023-04-15T11:51:11;11.00;99.90
52125;DHT22;38119;52.710;6.398;2023-04-15T11:53:43;11.00;99.90
52125;DHT22;38119;52.710;6.398;2023-04-15T11:56:15;11.00;99.90
52125;DHT22;38119;52.710;6.398;2023-04-15T11:58:41;10.90;99.90
52125;DHT22;38119;52.710;6.398;2023-04-15T12:01:07;10.90;99.90
52125;DHT22;38119;52.710;6.398;2023-04-15T12:03:41;10.90;99.90
52125;DHT22;38119;52.710;6.398;2023-04-15T12:06:18;10.90;99.90
52125;DHT22;38119;52.710;6.398;2023-04-15T12:08:57;10.90;99.90
52125;DHT22;38119;52.710;6.398;2023-04-15T12:11:27;10.90;99.90
52125;DHT22;38119;52.710;6.398;2023-04-15T12:13:56;11.00;99.90
52125;DHT22;38119;52.710;6.398;2023-04-15T12:16:23;11.10;99.90
52125;DHT22;38119;52.710;6.398;2023-04-15T12:18:53;11.10;99.90
52125;DHT22;38119;52.710;6.398;2023-04-15T12:21:21;11.10;99.90
52125;DHT22;38119;52.710;6.398;2023-04-15T12:24:00;11.10;99.90
52125;DHT22;38119;52.710;6.398;2023-04-15T12:26:28;11.00;99.90
52125;DHT22;38119;52.710;6.398;2023-04-15T12:29:04;11.00;99.90
52125;DHT22;38119;52.710;6.398;2023-04-15T12:31:30;11.00;99.90
52125;DHT22;38119;52.710;6.398;2023-04-15T12:33:56;11.00;99.90
52125;DHT22;38119;52.710;6.398;2023-04-15T12:36:23;10.90;99.90
52125;DHT22;38119;52.710;6.398;2023-04-15T12:38:49;10.90;99.90
52125;DHT22;38119;52.710;6.398;2023-04-15T12:41:14;10.90;99.90
52125;DHT22;38119;52.710;6.398;2023-04-15T12:43:40;10.90;99.90
52125;DHT22;38119;52.710;6.398;2023-04-15T12:46:06;10.90;99.90
52125;DHT22;38119;52.710;6.398;2023-04-15T12:48:33;10.90;99.90
52125;DHT22;38119;52.710;6.398;2023-04-15T12:50:59;11.00;99.90
52125;DHT22;38119;52.710;6.398;2023-04-15T12:53:25;11.00;99.90
52125;DHT22;38119;52.710;6.398;2023-04-15T12:55:50;11.00;99.90
52125;DHT22;38119;52.710;6.398;2023-04-15T12:58:16;11.00;99.90
52125;DHT22;38119;52.710;6.398;2023-04-15T13:00:42;11.00;99.90
52125;DHT22;38119;52.710;6.398;2023-04-15T13:03:07;11.00;99.90
52125;DHT22;38119;52.710;6.398;2023-04-15T13:05:33;11.00;99.90
52125;DHT22;38119;52.710;6.398;2023-04-15T13:08:01;11.00;99.90
52125;DHT22;38119;52.710;6.398;2023-04-15T13:10:28;10.90;99.90
52125;DHT22;38119;52.710;6.398;2023-04-15T13:12:53;10.90;99.90
52125;DHT22;38119;52.710;6.398;2023-04-15T13:15:21;10.80;99.90
52125;DHT22;38119;52.710;6.398;2023-04-15T13:17:47;10.80;99.90
52125;DHT22;38119;52.710;6.398;2023-04-15T13:20:12;10.80;99.90
52125;DHT22;38119;52.710;6.398;2023-04-15T13:22:38;10.80;99.90
52125;DHT22;38119;52.710;6.398;2023-04-15T13:25:04;10.90;99.90
52125;DHT22;38119;52.710;6.398;2023-04-15T13:27:30;10.90;99.90
52125;DHT22;38119;52.710;6.398;2023-04-15T13:29:56;10.90;99.90
52125;DHT22;38119;52.710;6.398;2023-04-15T13:32:22;10.90;99.90
52125;DHT22;38119;52.710;6.398;2023-04-15T13:34:47;10.90;99.90
52125;DHT22;38119;52.710;6.398;2023-04-15T13:37:13;10.90;99.90
52125;DHT22;38119;52.710;6.398;2023-04-15T13:39:38;10.90;99.90
52125;DHT22;38119;52.710;6.398;2023-04-15T13:42:04;10.90;99.90
52125;DHT22;38119;52.710;6.398;2023-04-15T13:44:29;11.00;99.90
52125;DHT22;38119;52.710;6.398;2023-04-15T13:46:55;11.00;99.90
52125;DHT22;38119;52.710;6.398;2023-04-15T13:49:21;11.10;99.90
52125;DHT22;38119;52.710;6.398;2023-04-15T13:51:46;11.10;99.90
52125;DHT22;38119;52.710;6.398;2023-04-15T13:54:12;11.10;99.90
52125;DHT22;38119;52.710;6.398;2023-04-15T13:56:37;11.10;99.90
52125;DHT22;38119;52.710;6.398;2023-04-15T13:59:03;11.10;99.90
52125;DHT22;38119;52.710;6.398;2023-04-15T14:01:28;11.00;99.90
52125;DHT22;38119;52.710;6.398;2023-04-15T14:03:54;10.90;99.90
52125;DHT22;38119;52.710;6.398;2023-04-15T14:06:20;10.90;99.90
52125;DHT22;38119;52.710;6.398;2023-04-15T14:08:46;10.90;99.90
52125;DHT22;38119;52.710;6.398;2023-04-15T14:11:12;10.90;99.90
52125;DHT22;38119;52.710;6.398;2023-04-15T14:13:37;10.90;99.90
52125;DHT22;38119;52.710;6.398;2023-04-15T14:16:03;10.90;99.90
52125;DHT22;38119;52.710;6.398;2023-04-15T14:18:29;10.90;99.90
52125;DHT22;38119;52.710;6.398;2023-04-15T14:20:55;10.90;99.90
52125;DHT22;38119;52.710;6.398;2023-04-15T14:23:22;10.90;99.90
52125;DHT22;38119;52.710;6.398;2023-04-15T14:25:47;10.90;99.90
52125;DHT22;38119;52.710;6.398;2023-04-15T14:28:13;10.90;99.90
52125;DHT22;38119;52.710;6.398;2023-04-15T14:30:39;10.80;99.90
52125;DHT22;38119;52.710;6.398;2023-04-15T14:33:04;10.80;99.90
52125;DHT22;38119;52.710;6.398;2023-04-15T14:35:30;10.70;99.90
52125;DHT22;38119;52.710;6.398;2023-04-15T14:37:55;10.70;99.90
52125;DHT22;38119;52.710;6.398;2023-04-15T14:40:21;10.70;99.90
52125;DHT22;38119;52.710;6.398;2023-04-15T14:42:47;10.70;99.90
52125;DHT22;38119;52.710;6.398;2023-04-15T14:45:13;10.60;99.90
52125;DHT22;38119;52.710;6.398;2023-04-15T14:47:38;10.60;99.90
52125;DHT22;38119;52.710;6.398;2023-04-15T14:50:04;10.50;99.90
52125;DHT22;38119;52.710;6.398;2023-04-15T14:52:30;10.50;99.90
52125;DHT22;38119;52.710;6.398;2023-04-15T14:55:10;10.50;99.90
52125;DHT22;38119;52.710;6.398;2023-04-15T14:57:37;10.40;99.90
52125;DHT22;38119;52.710;6.398;2023-04-15T15:00:04;10.40;99.90
52125;DHT22;38119;52.710;6.398;2023-04-15T15:02:29;10.40;99.90
52125;DHT22;38119;52.710;6.398;2023-04-15T15:04:56;10.30;99.90
52125;DHT22;38119;52.710;6.398;2023-04-15T15:07:22;10.20;99.90
52125;DHT22;38119;52.710;6.398;2023-04-15T15:09:47;10.20;99.90
52125;DHT22;38119;52.710;6.398;2023-04-15T15:12:13;10.20;99.90
52125;DHT22;38119;52.710;6.398;2023-04-15T15:14:39;10.20;99.90
52125;DHT22;38119;52.710;6.398;2023-04-15T15:17:04;10.10;99.90
52125;DHT22;38119;52.710;6.398;2023-04-15T15:19:30;10.10;99.90
52125;DHT22;38119;52.710;6.398;2023-04-15T15:21:55;10.00;99.90
52125;DHT22;38119;52.710;6.398;2023-04-15T15:24:21;10.00;99.90
52125;DHT22;38119;52.710;6.398;2023-04-15T15:26:47;10.00;99.90
52125;DHT22;38119;52.710;6.398;2023-04-15T15:29:12;10.00;99.90
52125;DHT22;38119;52.710;6.398;2023-04-15T15:31:38;9.90;99.90
52125;DHT22;38119;52.710;6.398;2023-04-15T15:34:03;10.00;99.90
52125;DHT22;38119;52.710;6.398;2023-04-15T15:36:30;10.00;99.90
52125;DHT22;38119;52.710;6.398;2023-04-15T15:38:58;9.90;99.90
52125;DHT22;38119;52.710;6.398;2023-04-15T15:41:24;9.90;99.90
52125;DHT22;38119;52.710;6.398;2023-04-15T15:43:51;9.90;99.90
52125;DHT22;38119;52.710;6.398;2023-04-15T15:46:17;9.90;99.90
52125;DHT22;38119;52.710;6.398;2023-04-15T15:48:43;9.80;99.90